sensor_id;sensor_type;location;lat;lon;timestamp;P1;durP1;ratioP1;P2;durP2;ratioP2
52043;SDS011;38053;53.100;6.078;2024-02-23T00:01:50;7.43;;;1.40;;
52043;SDS011;38053;53.100;6.078;2024-02-23T00:04:16;4.25;;;0.70;;
52043;SDS011;38053;53.100;6.078;2024-02-23T00:06:44;7.68;;;1.25;;
52043;SDS011;38053;53.100;6.078;2024-02-23T00:09:10;2.72;;;0.88;;
52043;SDS011;38053;53.100;6.078;2024-02-23T00:11:35;7.47;;;1.33;;
52043;SDS011;38053;53.100;6.078;2024-02-23T00:14:06;9.25;;;2.35;;
52043;SDS011;38053;53.100;6.078;2024-02-23T00:16:37;5.68;;;0.93;;
52043;SDS011;38053;53.100;6.078;2024-02-23T00:19:04;7.72;;;1.02;;
52043;SDS011;38053;53.100;6.078;2024-02-23T00:21:29;8.98;;;0.85;;
52043;SDS011;38053;53.100;6.078;2024-02-23T00:23:55;6.53;;;1.30;;
52043;SDS011;38053;53.100;6.078;2024-02-23T00:26:20;2.40;;;1.00;;
52043;SDS011;38053;53.100;6.078;2024-02-23T00:28:46;10.75;;;1.95;;
52043;SDS011;38053;53.100;6.078;2024-02-23T00:31:12;12.68;;;1.83;;
52043;SDS011;38053;53.100;6.078;2024-02-23T00:33:37;7.32;;;1.73;;
52043;SDS011;38053;53.100;6.078;2024-02-23T00:38:45;7.95;;;2.85;;
52043;SDS011;38053;53.100;6.078;2024-02-23T00:41:11;12.10;;;1.80;;
52043;SDS011;38053;53.100;6.078;2024-02-23T00:43:37;7.43;;;1.77;;
52043;SDS011;38053;53.100;6.078;2024-02-23T00:46:03;10.93;;;2.20;;
52043;SDS011;38053;53.100;6.078;2024-02-23T00:48:29;6.43;;;2.05;;
52043;SDS011;38053;53.100;6.078;2024-02-23T00:50:55;6.70;;;1.38;;
52043;SDS011;38053;53.100;6.078;2024-02-23T00:53:21;5.20;;;1.15;;
52043;SDS011;38053;53.100;6.078;2024-02-23T00:55:47;11.30;;;2.38;;
52043;SDS011;38053;53.100;6.078;2024-02-23T00:58:12;8.00;;;2.53;;
52043;SDS011;38053;53.100;6.078;2024-02-23T01:00:38;11.98;;;1.85;;
52043;SDS011;38053;53.100;6.078;2024-02-23T01:03:04;5.50;;;1.40;;
52043;SDS011;38053;53.100;6.078;2024-02-23T01:05:30;6.53;;;1.60;;
52043;SDS011;38053;53.100;6.078;2024-02-23T01:07:55;11.60;;;2.63;;
52043;SDS011;38053;53.100;6.078;2024-02-23T01:10:21;13.18;;;2.72;;
52043;SDS011;38053;53.100;6.078;2024-02-23T01:12:47;31.08;;;4.65;;
52043;SDS011;38053;53.100;6.078;2024-02-23T01:15:12;14.48;;;2.83;;
52043;SDS011;38053;53.100;6.078;2024-02-23T01:17:41;23.13;;;2.90;;
52043;SDS011;38053;53.100;6.078;2024-02-23T01:20:07;17.80;;;3.03;;
52043;SDS011;38053;53.100;6.078;2024-02-23T01:22:33;16.27;;;2.97;;
52043;SDS011;38053;53.100;6.078;2024-02-23T01:24:59;18.35;;;3.60;;
52043;SDS011;38053;53.100;6.078;2024-02-23T01:27:24;18.75;;;3.55;;
52043;SDS011;38053;53.100;6.078;2024-02-23T01:29:50;14.80;;;3.28;;
52043;SDS011;38053;53.100;6.078;2024-02-23T01:32:16;19.88;;;3.53;;
52043;SDS011;38053;53.100;6.078;2024-02-23T01:34:41;17.35;;;4.53;;
52043;SDS011;38053;53.100;6.078;2024-02-23T01:37:07;20.25;;;3.17;;
52043;SDS011;38053;53.100;6.078;2024-02-23T01:39:33;20.08;;;3.55;;
52043;SDS011;38053;53.100;6.078;2024-02-23T01:41:58;19.85;;;3.03;;
52043;SDS011;38053;53.100;6.078;2024-02-23T01:44:24;28.75;;;4.00;;
52043;SDS011;38053;53.100;6.078;2024-02-23T01:46:50;25.98;;;3.60;;
52043;SDS011;38053;53.100;6.078;2024-02-23T01:49:16;17.55;;;2.80;;
52043;SDS011;38053;53.100;6.078;2024-02-23T01:51:42;17.05;;;4.30;;
52043;SDS011;38053;53.100;6.078;2024-02-23T01:54:09;23.95;;;4.13;;
52043;SDS011;38053;53.100;6.078;2024-02-23T01:56:35;13.13;;;3.03;;
52043;SDS011;38053;53.100;6.078;2024-02-23T01:59:04;21.48;;;4.63;;
52043;SDS011;38053;53.100;6.078;2024-02-23T02:01:31;21.85;;;3.20;;
52043;SDS011;38053;53.100;6.078;2024-02-23T02:03:57;18.25;;;2.33;;
52043;SDS011;38053;53.100;6.078;2024-02-23T02:06:24;15.15;;;3.47;;
52043;SDS011;38053;53.100;6.078;2024-02-23T02:08:49;13.60;;;2.47;;
52043;SDS011;38053;53.100;6.078;2024-02-23T02:11:22;12.63;;;2.60;;
52043;SDS011;38053;53.100;6.078;2024-02-23T02:13:47;18.95;;;2.75;;
52043;SDS011;38053;53.100;6.078;2024-02-23T02:16:13;11.93;;;2.70;;
52043;SDS011;38053;53.100;6.078;2024-02-23T02:18:39;14.90;;;3.55;;
52043;SDS011;38053;53.100;6.078;2024-02-23T02:21:09;16.40;;;3.15;;
52043;SDS011;38053;53.100;6.078;2024-02-23T02:23:35;19.90;;;3.65;;
52043;SDS011;38053;53.100;6.078;2024-02-23T02:26:02;21.48;;;4.05;;
52043;SDS011;38053;53.100;6.078;2024-02-23T02:28:30;15.77;;;2.70;;
52043;SDS011;38053;53.100;6.078;2024-02-23T02:30:55;30.33;;;5.75;;
52043;SDS011;38053;53.100;6.078;2024-02-23T02:33:21;12.88;;;3.13;;
52043;SDS011;38053;53.100;6.078;2024-02-23T02:35:49;12.80;;;3.30;;
52043;SDS011;38053;53.100;6.078;2024-02-23T02:38:17;17.17;;;3.17;;
52043;SDS011;38053;53.100;6.078;2024-02-23T02:40:43;19.52;;;3.20;;
52043;SDS011;38053;53.100;6.078;2024-02-23T02:43:11;17.95;;;2.80;;
52043;SDS011;38053;53.100;6.078;2024-02-23T02:45:37;15.40;;;2.10;;
52043;SDS011;38053;53.100;6.078;2024-02-23T02:48:03;15.88;;;2.25;;
52043;SDS011;38053;53.100;6.078;2024-02-23T02:50:29;16.40;;;3.55;;
52043;SDS011;38053;53.100;6.078;2024-02-23T02:52:55;13.55;;;2.90;;
52043;SDS011;38053;53.100;6.078;2024-02-23T02:57:59;19.70;;;3.15;;
52043;SDS011;38053;53.100;6.078;2024-02-23T03:00:24;12.98;;;2.50;;
52043;SDS011;38053;53.100;6.078;2024-02-23T03:02:53;16.13;;;3.58;;
52043;SDS011;38053;53.100;6.078;2024-02-23T03:05:18;23.42;;;4.18;;
52043;SDS011;38053;53.100;6.078;2024-02-23T03:07:44;16.98;;;2.65;;
52043;SDS011;38053;53.100;6.078;2024-02-23T03:10:10;13.25;;;2.85;;
52043;SDS011;38053;53.100;6.078;2024-02-23T03:12:36;20.00;;;3.00;;
52043;SDS011;38053;53.100;6.078;2024-02-23T03:15:01;15.63;;;2.25;;
52043;SDS011;38053;53.100;6.078;2024-02-23T03:17:28;15.52;;;3.00;;
52043;SDS011;38053;53.100;6.078;2024-02-23T03:19:54;16.77;;;2.75;;
52043;SDS011;38053;53.100;6.078;2024-02-23T03:22:19;16.70;;;2.50;;
52043;SDS011;38053;53.100;6.078;2024-02-23T03:24:45;12.57;;;2.53;;
52043;SDS011;38053;53.100;6.078;2024-02-23T03:27:11;18.52;;;3.63;;
52043;SDS011;38053;53.100;6.078;2024-02-23T03:29:38;13.77;;;2.50;;
52043;SDS011;38053;53.100;6.078;2024-02-23T03:32:04;19.85;;;2.50;;
52043;SDS011;38053;53.100;6.078;2024-02-23T03:34:31;24.00;;;2.65;;
52043;SDS011;38053;53.100;6.078;2024-02-23T03:36:56;16.90;;;3.40;;
52043;SDS011;38053;53.100;6.078;2024-02-23T03:39:23;25.70;;;5.40;;
52043;SDS011;38053;53.100;6.078;2024-02-23T03:41:50;15.77;;;2.92;;
52043;SDS011;38053;53.100;6.078;2024-02-23T03:44:15;12.38;;;2.45;;
52043;SDS011;38053;53.100;6.078;2024-02-23T03:46:41;12.25;;;2.38;;
52043;SDS011;38053;53.100;6.078;2024-02-23T03:49:07;20.50;;;2.85;;
52043;SDS011;38053;53.100;6.078;2024-02-23T03:51:33;12.10;;;2.60;;
52043;SDS011;38053;53.100;6.078;2024-02-23T03:54:01;16.95;;;2.60;;
52043;SDS011;38053;53.100;6.078;2024-02-23T03:56:28;23.60;;;3.63;;
52043;SDS011;38053;53.100;6.078;2024-02-23T03:58:53;10.07;;;3.25;;
52043;SDS011;38053;53.100;6.078;2024-02-23T04:01:19;14.82;;;2.28;;
52043;SDS011;38053;53.100;6.078;2024-02-23T04:03:45;16.02;;;3.67;;
52043;SDS011;38053;53.100;6.078;2024-02-23T04:16:32;18.15;;;2.28;;
52043;SDS011;38053;53.100;6.078;2024-02-23T04:18:58;16.70;;;2.05;;
52043;SDS011;38053;53.100;6.078;2024-02-23T04:21:24;14.50;;;3.03;;
52043;SDS011;38053;53.100;6.078;2024-02-23T04:23:50;22.25;;;2.97;;
52043;SDS011;38053;53.100;6.078;2024-02-23T04:26:17;17.23;;;2.10;;
52043;SDS011;38053;53.100;6.078;2024-02-23T04:28:43;12.38;;;2.42;;
52043;SDS011;38053;53.100;6.078;2024-02-23T04:31:09;16.85;;;2.65;;
52043;SDS011;38053;53.100;6.078;2024-02-23T04:33:35;15.20;;;2.00;;
52043;SDS011;38053;53.100;6.078;2024-02-23T04:36:01;11.45;;;2.75;;
52043;SDS011;38053;53.100;6.078;2024-02-23T04:38:28;11.50;;;2.03;;
52043;SDS011;38053;53.100;6.078;2024-02-23T04:40:54;52.80;;;4.93;;
52043;SDS011;38053;53.100;6.078;2024-02-23T04:43:21;9.32;;;2.10;;
52043;SDS011;38053;53.100;6.078;2024-02-23T04:45:48;17.02;;;2.78;;
52043;SDS011;38053;53.100;6.078;2024-02-23T04:48:13;10.90;;;1.83;;
52043;SDS011;38053;53.100;6.078;2024-02-23T04:50:39;9.07;;;1.73;;
52043;SDS011;38053;53.100;6.078;2024-02-23T04:53:05;12.63;;;2.65;;
52043;SDS011;38053;53.100;6.078;2024-02-23T04:55:30;19.35;;;3.20;;
52043;SDS011;38053;53.100;6.078;2024-02-23T04:57:56;17.83;;;2.90;;
52043;SDS011;38053;53.100;6.078;2024-02-23T05:00:22;14.63;;;2.47;;
52043;SDS011;38053;53.100;6.078;2024-02-23T05:02:48;17.88;;;3.05;;
52043;SDS011;38053;53.100;6.078;2024-02-23T05:05:14;15.10;;;2.88;;
52043;SDS011;38053;53.100;6.078;2024-02-23T05:07:40;15.93;;;2.92;;
52043;SDS011;38053;53.100;6.078;2024-02-23T05:10:06;14.75;;;1.67;;
52043;SDS011;38053;53.100;6.078;2024-02-23T05:12:35;21.10;;;2.17;;
52043;SDS011;38053;53.100;6.078;2024-02-23T05:15:00;20.05;;;2.90;;
52043;SDS011;38053;53.100;6.078;2024-02-23T05:17:26;11.23;;;2.30;;
52043;SDS011;38053;53.100;6.078;2024-02-23T05:19:52;12.15;;;2.75;;
52043;SDS011;38053;53.100;6.078;2024-02-23T05:22:17;15.25;;;3.95;;
52043;SDS011;38053;53.100;6.078;2024-02-23T05:24:44;8.63;;;2.28;;
52043;SDS011;38053;53.100;6.078;2024-02-23T05:27:10;16.25;;;3.92;;
52043;SDS011;38053;53.100;6.078;2024-02-23T05:29:36;18.67;;;2.95;;
52043;SDS011;38053;53.100;6.078;2024-02-23T05:32:02;14.27;;;2.63;;
52043;SDS011;38053;53.100;6.078;2024-02-23T05:34:28;8.10;;;2.28;;
52043;SDS011;38053;53.100;6.078;2024-02-23T05:36:54;13.50;;;2.90;;
52043;SDS011;38053;53.100;6.078;2024-02-23T05:39:19;9.90;;;2.80;;
52043;SDS011;38053;53.100;6.078;2024-02-23T05:41:45;16.77;;;2.92;;
52043;SDS011;38053;53.100;6.078;2024-02-23T05:44:10;13.38;;;2.70;;
52043;SDS011;38053;53.100;6.078;2024-02-23T05:46:42;14.00;;;2.58;;
52043;SDS011;38053;53.100;6.078;2024-02-23T05:49:08;14.83;;;2.20;;
52043;SDS011;38053;53.100;6.078;2024-02-23T05:51:34;13.60;;;2.33;;
52043;SDS011;38053;53.100;6.078;2024-02-23T05:54:00;11.32;;;2.22;;
52043;SDS011;38053;53.100;6.078;2024-02-23T05:56:26;7.90;;;2.40;;
52043;SDS011;38053;53.100;6.078;2024-02-23T05:58:51;13.88;;;3.20;;
52043;SDS011;38053;53.100;6.078;2024-02-23T06:01:18;10.48;;;3.15;;
52043;SDS011;38053;53.100;6.078;2024-02-23T06:03:44;20.08;;;3.50;;
52043;SDS011;38053;53.100;6.078;2024-02-23T06:06:10;10.40;;;2.88;;
52043;SDS011;38053;53.100;6.078;2024-02-23T06:08:36;14.43;;;3.83;;
52043;SDS011;38053;53.100;6.078;2024-02-23T06:11:02;16.50;;;5.00;;
52043;SDS011;38053;53.100;6.078;2024-02-23T06:13:32;16.85;;;4.18;;
52043;SDS011;38053;53.100;6.078;2024-02-23T06:15:59;21.90;;;4.20;;
52043;SDS011;38053;53.100;6.078;2024-02-23T06:18:24;13.55;;;4.57;;
52043;SDS011;38053;53.100;6.078;2024-02-23T06:20:50;17.15;;;5.88;;
52043;SDS011;38053;53.100;6.078;2024-02-23T06:23:17;17.00;;;3.95;;
52043;SDS011;38053;53.100;6.078;2024-02-23T06:25:43;15.38;;;4.45;;
52043;SDS011;38053;53.100;6.078;2024-02-23T06:28:09;17.38;;;4.95;;
52043;SDS011;38053;53.100;6.078;2024-02-23T06:30:35;18.02;;;3.92;;
52043;SDS011;38053;53.100;6.078;2024-02-23T06:33:02;15.85;;;4.68;;
52043;SDS011;38053;53.100;6.078;2024-02-23T06:35:30;17.00;;;5.22;;
52043;SDS011;38053;53.100;6.078;2024-02-23T06:37:56;11.48;;;4.55;;
52043;SDS011;38053;53.100;6.078;2024-02-23T06:40:21;15.85;;;4.40;;
52043;SDS011;38053;53.100;6.078;2024-02-23T06:42:47;17.48;;;5.65;;
52043;SDS011;38053;53.100;6.078;2024-02-23T06:45:13;26.98;;;6.15;;
52043;SDS011;38053;53.100;6.078;2024-02-23T06:47:43;19.55;;;7.20;;
52043;SDS011;38053;53.100;6.078;2024-02-23T06:50:09;17.75;;;5.10;;
52043;SDS011;38053;53.100;6.078;2024-02-23T06:52:35;16.77;;;5.35;;
52043;SDS011;38053;53.100;6.078;2024-02-23T06:55:02;24.13;;;6.32;;
52043;SDS011;38053;53.100;6.078;2024-02-23T06:57:28;14.75;;;6.13;;
52043;SDS011;38053;53.100;6.078;2024-02-23T06:59:56;18.67;;;6.43;;
52043;SDS011;38053;53.100;6.078;2024-02-23T07:02:21;16.70;;;6.15;;
52043;SDS011;38053;53.100;6.078;2024-02-23T07:04:47;16.23;;;7.10;;
52043;SDS011;38053;53.100;6.078;2024-02-23T07:07:12;16.55;;;6.25;;
52043;SDS011;38053;53.100;6.078;2024-02-23T07:09:41;22.95;;;8.23;;
52043;SDS011;38053;53.100;6.078;2024-02-23T07:12:06;21.38;;;7.25;;
52043;SDS011;38053;53.100;6.078;2024-02-23T07:14:32;11.93;;;6.68;;
52043;SDS011;38053;53.100;6.078;2024-02-23T07:16:58;17.27;;;6.68;;
52043;SDS011;38053;53.100;6.078;2024-02-23T07:19:24;21.90;;;6.50;;
52043;SDS011;38053;53.100;6.078;2024-02-23T07:21:50;15.07;;;7.13;;
52043;SDS011;38053;53.100;6.078;2024-02-23T07:24:20;21.52;;;8.32;;
52043;SDS011;38053;53.100;6.078;2024-02-23T07:26:45;20.98;;;7.25;;
52043;SDS011;38053;53.100;6.078;2024-02-23T07:29:11;17.33;;;6.75;;
52043;SDS011;38053;53.100;6.078;2024-02-23T07:31:37;15.02;;;6.50;;
52043;SDS011;38053;53.100;6.078;2024-02-23T07:34:02;17.85;;;5.57;;
52043;SDS011;38053;53.100;6.078;2024-02-23T07:36:28;12.75;;;6.07;;
52043;SDS011;38053;53.100;6.078;2024-02-23T07:38:54;16.83;;;6.05;;
52043;SDS011;38053;53.100;6.078;2024-02-23T07:41:27;16.52;;;6.75;;
52043;SDS011;38053;53.100;6.078;2024-02-23T07:43:53;16.30;;;5.85;;
52043;SDS011;38053;53.100;6.078;2024-02-23T07:46:19;17.85;;;5.97;;
52043;SDS011;38053;53.100;6.078;2024-02-23T07:48:45;13.65;;;4.90;;
52043;SDS011;38053;53.100;6.078;2024-02-23T07:51:13;11.88;;;5.75;;
52043;SDS011;38053;53.100;6.078;2024-02-23T07:53:39;12.32;;;5.57;;
52043;SDS011;38053;53.100;6.078;2024-02-23T07:56:07;10.63;;;5.50;;
52043;SDS011;38053;53.100;6.078;2024-02-23T07:58:33;12.50;;;5.70;;
52043;SDS011;38053;53.100;6.078;2024-02-23T08:00:58;21.70;;;7.00;;
52043;SDS011;38053;53.100;6.078;2024-02-23T08:03:24;20.05;;;6.15;;
52043;SDS011;38053;53.100;6.078;2024-02-23T08:05:51;17.58;;;7.45;;
52043;SDS011;38053;53.100;6.078;2024-02-23T08:08:18;14.18;;;7.00;;
52043;SDS011;38053;53.100;6.078;2024-02-23T08:10:44;12.60;;;6.28;;
52043;SDS011;38053;53.100;6.078;2024-02-23T08:13:09;19.05;;;9.35;;
52043;SDS011;38053;53.100;6.078;2024-02-23T08:15:35;13.63;;;7.43;;
52043;SDS011;38053;53.100;6.078;2024-02-23T08:18:02;15.25;;;6.55;;
52043;SDS011;38053;53.100;6.078;2024-02-23T08:20:30;11.63;;;6.03;;
52043;SDS011;38053;53.100;6.078;2024-02-23T08:22:56;10.73;;;6.03;;
52043;SDS011;38053;53.100;6.078;2024-02-23T08:25:22;12.98;;;6.10;;
52043;SDS011;38053;53.100;6.078;2024-02-23T08:27:47;13.43;;;5.50;;
52043;SDS011;38053;53.100;6.078;2024-02-23T08:30:14;10.05;;;4.90;;
52043;SDS011;38053;53.100;6.078;2024-02-23T08:32:46;11.05;;;4.47;;
52043;SDS011;38053;53.100;6.078;2024-02-23T08:35:14;12.02;;;4.78;;
52043;SDS011;38053;53.100;6.078;2024-02-23T08:37:40;13.13;;;4.85;;
52043;SDS011;38053;53.100;6.078;2024-02-23T08:40:08;8.48;;;3.83;;
52043;SDS011;38053;53.100;6.078;2024-02-23T08:42:34;8.18;;;3.63;;
52043;SDS011;38053;53.100;6.078;2024-02-23T08:45:02;15.10;;;3.50;;
52043;SDS011;38053;53.100;6.078;2024-02-23T08:47:29;7.78;;;3.10;;
52043;SDS011;38053;53.100;6.078;2024-02-23T08:49:58;8.45;;;3.25;;
52043;SDS011;38053;53.100;6.078;2024-02-23T08:52:24;11.77;;;4.07;;
52043;SDS011;38053;53.100;6.078;2024-02-23T08:54:50;7.35;;;3.13;;
52043;SDS011;38053;53.100;6.078;2024-02-23T08:57:16;14.65;;;4.22;;
52043;SDS011;38053;53.100;6.078;2024-02-23T08:59:44;10.80;;;2.80;;
52043;SDS011;38053;53.100;6.078;2024-02-23T09:02:13;11.30;;;3.10;;
52043;SDS011;38053;53.100;6.078;2024-02-23T09:04:39;10.18;;;2.90;;
52043;SDS011;38053;53.100;6.078;2024-02-23T09:07:05;10.57;;;2.40;;
52043;SDS011;38053;53.100;6.078;2024-02-23T09:09:31;10.85;;;2.75;;
52043;SDS011;38053;53.100;6.078;2024-02-23T09:11:57;5.95;;;2.95;;
52043;SDS011;38053;53.100;6.078;2024-02-23T09:14:23;6.78;;;2.35;;
52043;SDS011;38053;53.100;6.078;2024-02-23T09:16:50;10.68;;;3.20;;
52043;SDS011;38053;53.100;6.078;2024-02-23T09:19:17;6.35;;;2.70;;
52043;SDS011;38053;53.100;6.078;2024-02-23T09:21:43;12.45;;;2.90;;
52043;SDS011;38053;53.100;6.078;2024-02-23T09:24:09;7.68;;;2.40;;
52043;SDS011;38053;53.100;6.078;2024-02-23T09:26:35;7.68;;;2.65;;
52043;SDS011;38053;53.100;6.078;2024-02-23T09:29:01;9.98;;;4.05;;
52043;SDS011;38053;53.100;6.078;2024-02-23T09:31:26;13.35;;;3.33;;
52043;SDS011;38053;53.100;6.078;2024-02-23T10:22:33;13.60;;;3.60;;
52043;SDS011;38053;53.100;6.078;2024-02-23T10:25:03;14.35;;;3.63;;
52043;SDS011;38053;53.100;6.078;2024-02-23T10:27:43;7.72;;;2.75;;
52043;SDS011;38053;53.100;6.078;2024-02-23T10:30:13;9.13;;;2.30;;
52043;SDS011;38053;53.100;6.078;2024-02-23T10:32:40;9.57;;;2.50;;
52043;SDS011;38053;53.100;6.078;2024-02-23T10:35:13;13.10;;;2.28;;
52043;SDS011;38053;53.100;6.078;2024-02-23T10:37:44;10.55;;;3.00;;
52043;SDS011;38053;53.100;6.078;2024-02-23T10:40:16;10.95;;;2.65;;
52043;SDS011;38053;53.100;6.078;2024-02-23T10:42:43;5.88;;;2.10;;
52043;SDS011;38053;53.100;6.078;2024-02-23T10:45:13;13.30;;;2.13;;
52043;SDS011;38053;53.100;6.078;2024-02-23T10:47:41;7.55;;;2.00;;
52043;SDS011;38053;53.100;6.078;2024-02-23T10:50:07;10.93;;;2.33;;
52043;SDS011;38053;53.100;6.078;2024-02-23T10:52:34;4.88;;;2.03;;
52043;SDS011;38053;53.100;6.078;2024-02-23T10:55:04;6.00;;;2.15;;
52043;SDS011;38053;53.100;6.078;2024-02-23T10:57:34;11.20;;;3.35;;
52043;SDS011;38053;53.100;6.078;2024-02-23T11:00:00;10.63;;;2.13;;
52043;SDS011;38053;53.100;6.078;2024-02-23T11:03:24;6.72;;;2.17;;
52043;SDS011;38053;53.100;6.078;2024-02-23T11:05:50;7.80;;;2.28;;
52043;SDS011;38053;53.100;6.078;2024-02-23T11:08:22;7.05;;;2.03;;
52043;SDS011;38053;53.100;6.078;2024-02-23T11:27:34;6.90;;;2.35;;
52043;SDS011;38053;53.100;6.078;2024-02-23T11:30:05;10.10;;;2.17;;
52043;SDS011;38053;53.100;6.078;2024-02-23T11:32:46;12.68;;;2.45;;
52043;SDS011;38053;53.100;6.078;2024-02-23T11:35:16;9.38;;;2.45;;
52043;SDS011;38053;53.100;6.078;2024-02-23T11:37:53;10.48;;;2.67;;
52043;SDS011;38053;53.100;6.078;2024-02-23T11:40:32;5.60;;;2.00;;
52043;SDS011;38053;53.100;6.078;2024-02-23T11:46:39;8.40;;;2.58;;
52043;SDS011;38053;53.100;6.078;2024-02-23T11:49:05;8.60;;;2.00;;
52043;SDS011;38053;53.100;6.078;2024-02-23T11:51:31;8.15;;;1.95;;
52043;SDS011;38053;53.100;6.078;2024-02-23T11:53:57;16.10;;;3.55;;
52043;SDS011;38053;53.100;6.078;2024-02-23T11:56:23;8.45;;;2.17;;
52043;SDS011;38053;53.100;6.078;2024-02-23T11:58:49;6.70;;;2.25;;
52043;SDS011;38053;53.100;6.078;2024-02-23T12:01:18;10.70;;;3.33;;
52043;SDS011;38053;53.100;6.078;2024-02-23T12:03:44;17.85;;;5.03;;
52043;SDS011;38053;53.100;6.078;2024-02-23T12:06:10;10.00;;;2.17;;
52043;SDS011;38053;53.100;6.078;2024-02-23T12:08:36;10.65;;;2.05;;
52043;SDS011;38053;53.100;6.078;2024-02-23T12:11:03;9.90;;;2.53;;
52043;SDS011;38053;53.100;6.078;2024-02-23T12:13:30;10.90;;;2.22;;
52043;SDS011;38053;53.100;6.078;2024-02-23T12:15:56;7.20;;;1.80;;
52043;SDS011;38053;53.100;6.078;2024-02-23T12:18:22;15.02;;;3.78;;
52043;SDS011;38053;53.100;6.078;2024-02-23T12:21:00;7.80;;;1.80;;
52043;SDS011;38053;53.100;6.078;2024-02-23T12:23:27;7.63;;;1.65;;
52043;SDS011;38053;53.100;6.078;2024-02-23T12:26:15;5.32;;;1.60;;
52043;SDS011;38053;53.100;6.078;2024-02-23T12:28:42;12.48;;;2.53;;
52043;SDS011;38053;53.100;6.078;2024-02-23T12:31:08;5.28;;;2.22;;
52043;SDS011;38053;53.100;6.078;2024-02-23T12:33:35;10.32;;;2.42;;
52043;SDS011;38053;53.100;6.078;2024-02-23T12:36:05;11.88;;;3.33;;
52043;SDS011;38053;53.100;6.078;2024-02-23T12:38:35;5.70;;;1.55;;
52043;SDS011;38053;53.100;6.078;2024-02-23T12:41:02;7.63;;;2.22;;
52043;SDS011;38053;53.100;6.078;2024-02-23T12:43:28;9.65;;;2.03;;
52043;SDS011;38053;53.100;6.078;2024-02-23T12:45:54;5.50;;;2.33;;
52043;SDS011;38053;53.100;6.078;2024-02-23T12:48:20;11.15;;;2.40;;
52043;SDS011;38053;53.100;6.078;2024-02-23T12:50:47;9.45;;;2.90;;
52043;SDS011;38053;53.100;6.078;2024-02-23T12:56:17;14.18;;;3.55;;
52043;SDS011;38053;53.100;6.078;2024-02-23T12:58:45;5.57;;;2.10;;
52043;SDS011;38053;53.100;6.078;2024-02-23T13:01:11;7.43;;;1.80;;
52043;SDS011;38053;53.100;6.078;2024-02-23T13:03:38;6.88;;;2.20;;
52043;SDS011;38053;53.100;6.078;2024-02-23T13:06:07;13.82;;;3.90;;
52043;SDS011;38053;53.100;6.078;2024-02-23T13:08:32;8.55;;;2.13;;
52043;SDS011;38053;53.100;6.078;2024-02-23T13:10:59;7.63;;;2.08;;
52043;SDS011;38053;53.100;6.078;2024-02-23T13:13:25;8.82;;;2.30;;
52043;SDS011;38053;53.100;6.078;2024-02-23T13:15:52;11.35;;;3.13;;
52043;SDS011;38053;53.100;6.078;2024-02-23T13:18:18;11.25;;;2.60;;
52043;SDS011;38053;53.100;6.078;2024-02-23T13:20:44;9.00;;;2.63;;
52043;SDS011;38053;53.100;6.078;2024-02-23T13:23:10;10.52;;;2.72;;
52043;SDS011;38053;53.100;6.078;2024-02-23T13:25:40;9.93;;;2.55;;
52043;SDS011;38053;53.100;6.078;2024-02-23T13:28:09;8.85;;;2.42;;
52043;SDS011;38053;53.100;6.078;2024-02-23T13:30:35;13.73;;;2.20;;
52043;SDS011;38053;53.100;6.078;2024-02-23T13:33:02;7.13;;;2.47;;
52043;SDS011;38053;53.100;6.078;2024-02-23T13:35:28;6.22;;;1.95;;
52043;SDS011;38053;53.100;6.078;2024-02-23T13:37:53;10.25;;;3.13;;
52043;SDS011;38053;53.100;6.078;2024-02-23T13:40:29;10.10;;;2.00;;
52043;SDS011;38053;53.100;6.078;2024-02-23T13:42:55;5.63;;;1.88;;
52043;SDS011;38053;53.100;6.078;2024-02-23T13:45:21;12.00;;;2.83;;
52043;SDS011;38053;53.100;6.078;2024-02-23T13:48:02;6.05;;;2.13;;
52043;SDS011;38053;53.100;6.078;2024-02-23T13:50:28;8.38;;;1.70;;
52043;SDS011;38053;53.100;6.078;2024-02-23T13:52:58;6.75;;;1.35;;
52043;SDS011;38053;53.100;6.078;2024-02-23T13:55:26;11.63;;;3.35;;
52043;SDS011;38053;53.100;6.078;2024-02-23T13:57:52;18.95;;;2.10;;
52043;SDS011;38053;53.100;6.078;2024-02-23T14:00:18;12.13;;;1.83;;
52043;SDS011;38053;53.100;6.078;2024-02-23T14:02:45;5.53;;;1.63;;
52043;SDS011;38053;53.100;6.078;2024-02-23T14:05:11;9.82;;;2.25;;
52043;SDS011;38053;53.100;6.078;2024-02-23T14:07:37;7.05;;;2.42;;
52043;SDS011;38053;53.100;6.078;2024-02-23T14:10:03;10.55;;;1.70;;
52043;SDS011;38053;53.100;6.078;2024-02-23T14:12:29;10.13;;;2.22;;
52043;SDS011;38053;53.100;6.078;2024-02-23T14:14:55;10.27;;;2.03;;
52043;SDS011;38053;53.100;6.078;2024-02-23T14:17:36;12.18;;;3.70;;
52043;SDS011;38053;53.100;6.078;2024-02-23T14:20:02;9.55;;;1.85;;
52043;SDS011;38053;53.100;6.078;2024-02-23T14:22:28;14.43;;;2.28;;
52043;SDS011;38053;53.100;6.078;2024-02-23T14:24:57;10.48;;;1.95;;
52043;SDS011;38053;53.100;6.078;2024-02-23T14:27:23;5.70;;;2.17;;
52043;SDS011;38053;53.100;6.078;2024-02-23T14:29:49;9.93;;;3.47;;
52043;SDS011;38053;53.100;6.078;2024-02-23T14:32:16;12.07;;;2.20;;
52043;SDS011;38053;53.100;6.078;2024-02-23T14:34:42;13.40;;;2.47;;
52043;SDS011;38053;53.100;6.078;2024-02-23T14:37:08;8.95;;;1.50;;
52043;SDS011;38053;53.100;6.078;2024-02-23T14:39:34;9.52;;;1.77;;
52043;SDS011;38053;53.100;6.078;2024-02-23T14:45:40;9.93;;;1.98;;
52043;SDS011;38053;53.100;6.078;2024-02-23T14:48:06;7.20;;;1.73;;
52043;SDS011;38053;53.100;6.078;2024-02-23T14:50:32;14.10;;;2.50;;
52043;SDS011;38053;53.100;6.078;2024-02-23T14:52:58;14.18;;;2.58;;
52043;SDS011;38053;53.100;6.078;2024-02-23T14:55:24;11.50;;;2.42;;
52043;SDS011;38053;53.100;6.078;2024-02-23T14:57:50;10.88;;;2.75;;
52043;SDS011;38053;53.100;6.078;2024-02-23T15:00:17;7.75;;;2.38;;
52043;SDS011;38053;53.100;6.078;2024-02-23T15:02:43;15.98;;;2.90;;
52043;SDS011;38053;53.100;6.078;2024-02-23T15:05:09;11.35;;;3.10;;
52043;SDS011;38053;53.100;6.078;2024-02-23T15:07:35;9.00;;;2.38;;
52043;SDS011;38053;53.100;6.078;2024-02-23T15:10:02;35.22;;;3.17;;
52043;SDS011;38053;53.100;6.078;2024-02-23T15:13:10;7.30;;;1.85;;
52043;SDS011;38053;53.100;6.078;2024-02-23T15:15:35;8.15;;;1.75;;
52043;SDS011;38053;53.100;6.078;2024-02-23T15:18:08;15.27;;;3.38;;
52043;SDS011;38053;53.100;6.078;2024-02-23T15:20:33;14.82;;;3.65;;
52043;SDS011;38053;53.100;6.078;2024-02-23T15:22:59;5.55;;;1.85;;
52043;SDS011;38053;53.100;6.078;2024-02-23T15:25:27;10.98;;;2.70;;
52043;SDS011;38053;53.100;6.078;2024-02-23T15:27:52;10.65;;;2.22;;
52043;SDS011;38053;53.100;6.078;2024-02-23T15:30:22;11.00;;;2.33;;
52043;SDS011;38053;53.100;6.078;2024-02-23T15:32:49;11.38;;;2.53;;
52043;SDS011;38053;53.100;6.078;2024-02-23T15:35:15;17.52;;;4.15;;
52043;SDS011;38053;53.100;6.078;2024-02-23T15:37:41;9.02;;;2.28;;
52043;SDS011;38053;53.100;6.078;2024-02-23T15:40:06;6.95;;;1.83;;
52043;SDS011;38053;53.100;6.078;2024-02-23T15:42:32;9.48;;;2.70;;
52043;SDS011;38053;53.100;6.078;2024-02-23T15:45:01;11.60;;;2.60;;
52043;SDS011;38053;53.100;6.078;2024-02-23T15:47:32;12.38;;;2.75;;
52043;SDS011;38053;53.100;6.078;2024-02-23T15:49:58;8.98;;;3.40;;
52043;SDS011;38053;53.100;6.078;2024-02-23T15:52:23;9.18;;;2.45;;
52043;SDS011;38053;53.100;6.078;2024-02-23T15:58:44;8.70;;;3.03;;
52043;SDS011;38053;53.100;6.078;2024-02-23T16:01:10;16.02;;;4.20;;
52043;SDS011;38053;53.100;6.078;2024-02-23T16:03:36;19.48;;;3.22;;
52043;SDS011;38053;53.100;6.078;2024-02-23T16:06:01;8.93;;;3.72;;
52043;SDS011;38053;53.100;6.078;2024-02-23T16:08:43;11.13;;;4.22;;
52043;SDS011;38053;53.100;6.078;2024-02-23T16:11:10;20.02;;;4.53;;
52043;SDS011;38053;53.100;6.078;2024-02-23T16:13:37;11.73;;;2.97;;